Temp: 8.6°C   Baro: 1005.7mb
  Wind: 2.9mph   Dir: WSW (243°)
  Rain: 0.6mm (0.0mm/hr)
  Sun: 0W/m2  Humidity: 93%

Historic data

Bath Spa Weather Station Historical Data
Daily Summary for October 25, 2022 Units:  Both    English   Metric
Daily Weekly Monthly Yearly Custom
  High: Low: Average:
Temperature: 62.1 °F /  16.7 °C 48.4 °F /  9.1 °C 55.7 °F /  13.2 °C
Dew Point: 56.4 °F /  13.6 °C 46.8 °F /  8.2 °C 52.2 °F /  11.2 °C
Humidity: 95% 77% 88%
Wind Speed: 9.2mph /  14.8km/h - 3.5mph /  5.6km/h
Wind Gust: 17mph /  27.4km/h - -
Wind- - South
Pressure: 29.88 in /  1011.7 hPa 29.67 in /  1004.6 hPa -
Precipitation: 0.13 in /  3.3 mm    
Historical Graphs
 
 
Tabular Data for October 25, 2022
Time Temperature Dew Point Pressure Wind Wind Speed Wind Gust Humidity Rainfall Rate (Hourly) solar
00:09 51.6 °F /  10.9 °C 49.1 °F /  9.5 °C 29.82in /  1009.7hPa WSW 1.2mph /  1.9km/h 4mph /  6.4km/h 91% 0.01in /  0.25mm 0 W/m2
00:14 51.4 °F /  10.8 °C 48.9 °F /  9.4 °C 29.82in /  1009.7hPa WSW 0.4mph /  0.6km/h 2mph /  3.2km/h 91% 0.01in /  0.25mm 0 W/m2
00:19 51.4 °F /  10.8 °C 48.9 °F /  9.4 °C 29.82in /  1009.7hPa WSW 1.3mph /  2.1km/h 5mph /  8km/h 91% 0.01in /  0.25mm 0 W/m2
00:24 51.4 °F /  10.8 °C 48.9 °F /  9.4 °C 29.82in /  1009.7hPa WSW 2.8mph /  4.5km/h 5mph /  8km/h 91% 0.01in /  0.25mm 0 W/m2
00:29 51.1 °F /  10.6 °C 48.6 °F /  9.2 °C 29.82in /  1009.7hPa West 2.8mph /  4.5km/h 5mph /  8km/h 91% 0.01in /  0.25mm 0 W/m2
00:34 51.3 °F /  10.7 °C 48.7 °F /  9.3 °C 29.82in /  1009.7hPa West 2.5mph /  4km/h 7mph /  11.3km/h 91% 0.01in /  0.25mm 0 W/m2
00:39 51.3 °F /  10.7 °C 48.7 °F /  9.3 °C 29.83in /  1010hPa West 1.1mph /  1.8km/h 3mph /  4.8km/h 91% 0.01in /  0.25mm 0 W/m2
00:44 51.3 °F /  10.7 °C 48.7 °F /  9.3 °C 29.83in /  1010hPa West 1.7mph /  2.7km/h 5mph /  8km/h 91% 0.01in /  0.25mm 0 W/m2
00:49 51.4 °F /  10.8 °C 48.8 °F /  9.3 °C 29.83in /  1010hPa WSW 4.1mph /  6.6km/h 7mph /  11.3km/h 91% 0.01in /  0.25mm 0 W/m2
00:54 51.4 °F /  10.8 °C 48.9 °F /  9.4 °C 29.83in /  1010hPa WSW 3mph /  4.8km/h 5mph /  8km/h 91% 0.01in /  0.25mm 0 W/m2
00:59 51.4 °F /  10.8 °C 48.9 °F /  9.4 °C 29.83in /  1010hPa WSW 2.6mph /  4.2km/h 6mph /  9.7km/h 91% 0.01in /  0.25mm 0 W/m2
01:04 51.4 °F /  10.8 °C 48.9 °F /  9.4 °C 29.83in /  1010hPa WSW 2.4mph /  3.9km/h 5mph /  8km/h 91% 0.01in /  0.25mm 0 W/m2
01:09 51.4 °F /  10.8 °C 48.9 °F /  9.4 °C 29.83in /  1010hPa WSW 2mph /  3.2km/h 4mph /  6.4km/h 91% 0.01in /  0.25mm 0 W/m2
01:14 51.4 °F /  10.8 °C 48.9 °F /  9.4 °C 29.83in /  1010hPa WSW 1.5mph /  2.4km/h 4mph /  6.4km/h 91% 0.01in /  0.25mm 0 W/m2
01:19 51.3 °F /  10.7 °C 48.8 °F /  9.3 °C 29.83in /  1010hPa WSW 0.9mph /  1.4km/h 4mph /  6.4km/h 91% 0.01in /  0.25mm 0 W/m2
01:24 51.3 °F /  10.7 °C 48.7 °F /  9.3 °C 29.83in /  1010hPa WSW 1mph /  1.6km/h 4mph /  6.4km/h 91% 0.01in /  0.25mm 0 W/m2
01:29 51.1 °F /  10.6 °C 48.8 °F /  9.3 °C 29.83in /  1010hPa WSW 1.3mph /  2.1km/h 4mph /  6.4km/h 91.8% 0.01in /  0.25mm 0 W/m2
01:34 51.4 °F /  10.8 °C 49.3 °F /  9.6 °C 29.83in /  1010hPa SW 2.1mph /  3.4km/h 5mph /  8km/h 92% 0.01in /  0.25mm 0 W/m2
01:39 51.6 °F /  10.9 °C 49.5 °F /  9.7 °C 29.83in /  1010hPa SW 1.8mph /  2.9km/h 6mph /  9.7km/h 92% 0.01in /  0.25mm 0 W/m2
01:44 51.7 °F /  10.9 °C 49.5 °F /  9.7 °C 29.83in /  1010hPa WSW 0.9mph /  1.4km/h 4mph /  6.4km/h 92% 0.01in /  0.25mm 0 W/m2
01:49 51.9 °F /  11.1 °C 49.6 °F /  9.8 °C 29.83in /  1010hPa WSW 0.8mph /  1.3km/h 3mph /  4.8km/h 92% 0.01in /  0.25mm 0 W/m2
01:54 51.8 °F /  11 °C 49.6 °F /  9.8 °C 29.83in /  1010hPa WSW 0.6mph /  1km/h 2mph /  3.2km/h 92% 0.01in /  0.25mm 0 W/m2
01:59 51.7 °F /  10.9 °C 49.6 °F /  9.8 °C 29.83in /  1010hPa WSW 0.2mph /  0.3km/h 2mph /  3.2km/h 92% 0.01in /  0.25mm 0 W/m2
02:04 51.6 °F /  10.9 °C 49.5 °F /  9.7 °C 29.83in /  1010hPa SW 2.8mph /  4.5km/h 5mph /  8km/h 92% 0.01in /  0.25mm 0 W/m2
02:09 51.6 °F /  10.9 °C 49.5 °F /  9.7 °C 29.83in /  1010hPa SW 1.2mph /  1.9km/h 4mph /  6.4km/h 92% 0.01in /  0.25mm 0 W/m2
02:14 51.7 °F /  10.9 °C 49.5 °F /  9.7 °C 29.83in /  1010hPa SW 0.6mph /  1km/h 3mph /  4.8km/h 92% 0.01in /  0.25mm 0 W/m2
02:19 51.5 °F /  10.8 °C 49.4 °F /  9.7 °C 29.83in /  1010hPa SW 0.4mph /  0.6km/h 2mph /  3.2km/h 92% 0.01in /  0.25mm 0 W/m2
02:24 51.5 °F /  10.8 °C 49.3 °F /  9.6 °C 29.84in /  1010.4hPa SW 1.7mph /  2.7km/h 3mph /  4.8km/h 92% 0.01in /  0.25mm 0 W/m2
02:29 51.6 °F /  10.9 °C 49.5 °F /  9.7 °C 29.83in /  1010hPa SW 1.6mph /  2.6km/h 4mph /  6.4km/h 92% 0.01in /  0.25mm 0 W/m2
02:34 51.9 °F /  11.1 °C 49.6 °F /  9.8 °C 29.83in /  1010hPa SW 2mph /  3.2km/h 7mph /  11.3km/h 92% 0.02in /  0.51mm 0 W/m2
02:39 52.2 °F /  11.2 °C 49.8 °F /  9.9 °C 29.84in /  1010.4hPa SW 2.9mph /  4.7km/h 7mph /  11.3km/h 92% 0.02in /  0.51mm 0 W/m2
02:44 52.3 °F /  11.3 °C 50 °F /  10 °C 29.84in /  1010.4hPa SSW 2mph /  3.2km/h 7mph /  11.3km/h 92% 0.01in /  0.25mm 0 W/m2
02:49 52.3 °F /  11.3 °C 50 °F /  10 °C 29.84in /  1010.4hPa SSW 1.7mph /  2.7km/h 6mph /  9.7km/h 92% 0.01in /  0.25mm 0 W/m2
02:54 52.3 °F /  11.3 °C 50 °F /  10 °C 29.84in /  1010.4hPa South 0.6mph /  1km/h 7mph /  11.3km/h 92% 0.01in /  0.25mm 0 W/m2
02:59 52.5 °F /  11.4 °C 50.2 °F /  10.1 °C 29.84in /  1010.4hPa SSW 2.8mph /  4.5km/h 5mph /  8km/h 92% 0.01in /  0.25mm 0 W/m2
03:04 52.5 °F /  11.4 °C 50.2 °F /  10.1 °C 29.84in /  1010.4hPa SSW 2.5mph /  4km/h 5mph /  8km/h 92% 0.01in /  0.25mm 0 W/m2
03:09 52.4 °F /  11.3 °C 50.1 °F /  10.1 °C 29.84in /  1010.4hPa SW 0.7mph /  1.1km/h 5mph /  8km/h 92% 0.01in /  0.25mm 0 W/m2
03:14 52.2 °F /  11.2 °C 49.8 °F /  9.9 °C 29.84in /  1010.4hPa WSW 1.7mph /  2.7km/h 4mph /  6.4km/h 92% 0.01in /  0.25mm 0 W/m2
03:19 52.1 °F /  11.2 °C 49.7 °F /  9.8 °C 29.84in /  1010.4hPa WSW 2.5mph /  4km/h 5mph /  8km/h 92% 0.01in /  0.25mm 0 W/m2
03:24 52 °F /  11.1 °C 49.6 °F /  9.8 °C 29.84in /  1010.4hPa WSW 1mph /  1.6km/h 4mph /  6.4km/h 92% 0.01in /  0.25mm 0 W/m2
03:29 52 °F /  11.1 °C 49.6 °F /  9.8 °C 29.84in /  1010.4hPa WSW 1.3mph /  2.1km/h 3mph /  4.8km/h 92% 0.01in /  0.25mm 0 W/m2
03:34 52 °F /  11.1 °C 49.6 °F /  9.8 °C 29.84in /  1010.4hPa WSW 1.9mph /  3.1km/h 4mph /  6.4km/h 92% 0.01in /  0.25mm 0 W/m2
03:39 51.7 °F /  10.9 °C 49.5 °F /  9.7 °C 29.84in /  1010.4hPa WSW 1.2mph /  1.9km/h 3mph /  4.8km/h 92% 0.01in /  0.25mm 0 W/m2
03:44 51.5 °F /  10.8 °C 49.3 °F /  9.6 °C 29.83in /  1010hPa WSW 1.5mph /  2.4km/h 3mph /  4.8km/h 92% 0.01in /  0.25mm 0 W/m2
03:49 51.2 °F /  10.7 °C 49 °F /  9.4 °C 29.84in /  1010.4hPa WSW 2.2mph /  3.5km/h 3mph /  4.8km/h 92% 0.01in /  0.25mm 0 W/m2
03:54 51.1 °F /  10.6 °C 48.9 °F /  9.4 °C 29.83in /  1010hPa WSW 2.2mph /  3.5km/h 3mph /  4.8km/h 92% 0.01in /  0.25mm 0 W/m2
03:59 51.2 °F /  10.7 °C 49 °F /  9.4 °C 29.83in /  1010hPa WSW 1.3mph /  2.1km/h 3mph /  4.8km/h 92% 0.01in /  0.25mm 0 W/m2
04:04 50.8 °F /  10.4 °C 48.6 °F /  9.2 °C 29.83in /  1010hPa WSW 1.4mph /  2.3km/h 3mph /  4.8km/h 92% 0.01in /  0.25mm 0 W/m2
04:09 50.6 °F /  10.3 °C 48.5 °F /  9.2 °C 29.84in /  1010.4hPa WSW 0.6mph /  1km/h 2mph /  3.2km/h 92% 0.01in /  0.25mm 0 W/m2
04:14 50.5 °F /  10.3 °C 48.3 °F /  9.1 °C 29.83in /  1010hPa WSW 1.6mph /  2.6km/h 3mph /  4.8km/h 92% 0.01in /  0.25mm 0 W/m2
04:19 50.5 °F /  10.3 °C 48.4 °F /  9.1 °C 29.84in /  1010.4hPa WSW 0.4mph /  0.6km/h 3mph /  4.8km/h 92% 0.01in /  0.25mm 0 W/m2
04:24 50.5 °F /  10.3 °C 48.4 °F /  9.1 °C 29.84in /  1010.4hPa Calm   2mph /  3.2km/h 92% 0.01in /  0.25mm 0 W/m2
04:29 50.4 °F /  10.2 °C 48.2 °F /  9 °C 29.84in /  1010.4hPa WSW 1mph /  1.6km/h 2mph /  3.2km/h 92% 0.01in /  0.25mm 0 W/m2
04:34 50.2 °F /  10.1 °C 48.1 °F /  8.9 °C 29.84in /  1010.4hPa WSW 1.7mph /  2.7km/h 3mph /  4.8km/h 92.6% 0.01in /  0.25mm 0 W/m2
04:39 50.2 °F /  10.1 °C 48.2 °F /  9 °C 29.84in /  1010.4hPa WSW 1mph /  1.6km/h 3mph /  4.8km/h 93% 0.01in /  0.25mm 0 W/m2
04:44 50.2 °F /  10.1 °C 48.2 °F /  9 °C 29.84in /  1010.4hPa WSW 1.8mph /  2.9km/h 3mph /  4.8km/h 93% 0.01in /  0.25mm 0 W/m2
04:49 49.8 °F /  9.9 °C 47.8 °F /  8.8 °C 29.84in /  1010.4hPa WSW 1.1mph /  1.8km/h 3mph /  4.8km/h 93% 0.01in /  0.25mm 0 W/m2
04:54 49.8 °F /  9.9 °C 47.8 °F /  8.8 °C 29.84in /  1010.4hPa WSW 2.3mph /  3.7km/h 3mph /  4.8km/h 93% 0.01in /  0.25mm 0 W/m2
04:59 49.8 °F /  9.9 °C 47.8 °F /  8.8 °C 29.84in /  1010.4hPa WSW 2.4mph /  3.9km/h 4mph /  6.4km/h 93% 0.01in /  0.25mm 0 W/m2
05:04 49.8 °F /  9.9 °C 47.8 °F /  8.8 °C 29.84in /  1010.4hPa WSW 2mph /  3.2km/h 4mph /  6.4km/h 93% 0.01in /  0.25mm 0 W/m2
05:09 49.8 °F /  9.9 °C 47.8 °F /  8.8 °C 29.84in /  1010.4hPa WSW 2.9mph /  4.7km/h 4mph /  6.4km/h 93% 0.01in /  0.25mm 0 W/m2
05:14 49.8 °F /  9.9 °C 47.8 °F /  8.8 °C 29.84in /  1010.4hPa West 3.2mph /  5.1km/h 5mph /  8km/h 93% 0.01in /  0.25mm 0 W/m2
05:19 49.9 °F /  9.9 °C 47.9 °F /  8.8 °C 29.84in /  1010.4hPa WNW 2.8mph /  4.5km/h 5mph /  8km/h 93% 0.01in /  0.25mm 0 W/m2
05:24 49.9 °F /  9.9 °C 47.9 °F /  8.8 °C 29.84in /  1010.4hPa WNW 1.5mph /  2.4km/h 3mph /  4.8km/h 93% 0.01in /  0.25mm 0 W/m2
05:29 49.7 °F /  9.8 °C 47.8 °F /  8.8 °C 29.84in /  1010.4hPa WNW 0.4mph /  0.6km/h 3mph /  4.8km/h 93% 0.01in /  0.25mm 0 W/m2
05:34 49.4 °F /  9.7 °C 47.4 °F /  8.6 °C 29.85in /  1010.7hPa WNW 1mph /  1.6km/h 3mph /  4.8km/h 93% 0.01in /  0.25mm 0 W/m2
05:39 49.1 °F /  9.5 °C 47.1 °F /  8.4 °C 29.85in /  1010.7hPa WNW 2.1mph /  3.4km/h 3mph /  4.8km/h 93% 0.00in /  0mm 0 W/m2
05:44 49.2 °F /  9.6 °C 47.2 °F /  8.4 °C 29.85in /  1010.7hPa WNW 1.5mph /  2.4km/h 3mph /  4.8km/h 93% 0.01in /  0.25mm 0 W/m2
05:49 49.3 °F /  9.6 °C 47.3 °F /  8.5 °C 29.85in /  1010.7hPa WNW 0.6mph /  1km/h 2mph /  3.2km/h 93% 0.01in /  0.25mm 0 W/m2
05:54 49.5 °F /  9.7 °C 47.5 °F /  8.6 °C 29.85in /  1010.7hPa WNW 1.9mph /  3.1km/h 3mph /  4.8km/h 93% 0.01in /  0.25mm 0 W/m2
05:59 49.8 °F /  9.9 °C 48.2 °F /  9 °C 29.85in /  1010.7hPa WNW 1.2mph /  1.9km/h 3mph /  4.8km/h 94% 0.01in /  0.25mm 0 W/m2
06:04 49.7 °F /  9.8 °C 48.1 °F /  8.9 °C 29.85in /  1010.7hPa West 0.2mph /  0.3km/h 3mph /  4.8km/h 93.8% 0.01in /  0.25mm 0 W/m2
06:09 49.1 °F /  9.5 °C 47.4 °F /  8.6 °C 29.85in /  1010.7hPa Calm   2mph /  3.2km/h 93.6% 0.01in /  0.25mm 0 W/m2
06:14 48.6 °F /  9.2 °C 46.8 °F /  8.2 °C 29.85in /  1010.7hPa West 0.8mph /  1.3km/h 2mph /  3.2km/h 93.4% 0.01in /  0.25mm 0 W/m2
06:19 48.4 °F /  9.1 °C 46.8 °F /  8.2 °C 29.85in /  1010.7hPa West 0.2mph /  0.3km/h 2mph /  3.2km/h 94% 0.01in /  0.25mm 0 W/m2
06:24 48.6 °F /  9.2 °C 46.9 °F /  8.3 °C 29.85in /  1010.7hPa WSW 0.4mph /  0.6km/h 2mph /  3.2km/h 94% 0.01in /  0.25mm 0 W/m2
06:29 48.8 °F /  9.3 °C 47.2 °F /  8.4 °C 29.85in /  1010.7hPa South 0.2mph /  0.3km/h 4mph /  6.4km/h 94% 0.01in /  0.25mm 0 W/m2
06:34 49.2 °F /  9.6 °C 47.6 °F /  8.7 °C 29.85in /  1010.7hPa South 0.8mph /  1.3km/h 2mph /  3.2km/h 94% 0.01in /  0.25mm 0 W/m2
06:39 49.6 °F /  9.8 °C 48 °F /  8.9 °C 29.85in /  1010.7hPa South 0.2mph /  0.3km/h 2mph /  3.2km/h 94% 0.01in /  0.25mm 0 W/m2
06:44 49.5 °F /  9.7 °C 47.8 °F /  8.8 °C 29.85in /  1010.7hPa South 0.9mph /  1.4km/h 2mph /  3.2km/h 94% 0.01in /  0.25mm 0 W/m2
06:49 49.3 °F /  9.6 °C 47.7 °F /  8.7 °C 29.85in /  1010.7hPa South 0.4mph /  0.6km/h 2mph /  3.2km/h 94% 0.01in /  0.25mm 0 W/m2
06:54 49.3 °F /  9.6 °C 47.7 °F /  8.7 °C 29.85in /  1010.7hPa South 1.8mph /  2.9km/h 3mph /  4.8km/h 94% 0.01in /  0.25mm 0 W/m2
06:59 48.9 °F /  9.4 °C 47.3 °F /  8.5 °C 29.85in /  1010.7hPa South 2.1mph /  3.4km/h 3mph /  4.8km/h 94% 0.01in /  0.25mm 0 W/m2
07:04 48.9 °F /  9.4 °C 47.3 °F /  8.5 °C 29.85in /  1010.7hPa South 2.3mph /  3.7km/h 4mph /  6.4km/h 94% 0.01in /  0.25mm 0 W/m2
07:09 49.2 °F /  9.6 °C 47.6 °F /  8.7 °C 29.85in /  1010.7hPa South 2.4mph /  3.9km/h 4mph /  6.4km/h 94% 0.01in /  0.25mm 0 W/m2
07:14 49.3 °F /  9.6 °C 47.7 °F /  8.7 °C 29.85in /  1010.7hPa South 2mph /  3.2km/h 3mph /  4.8km/h 94% 0.01in /  0.25mm 0 W/m2
07:19 49.1 °F /  9.5 °C 47.5 °F /  8.6 °C 29.85in /  1010.7hPa South 1.8mph /  2.9km/h 3mph /  4.8km/h 94% 0.01in /  0.25mm 0 W/m2
07:24 49 °F /  9.4 °C 47.4 °F /  8.6 °C 29.85in /  1010.7hPa South 0.8mph /  1.3km/h 3mph /  4.8km/h 94% 0.01in /  0.25mm 0 W/m2
07:29 49.3 °F /  9.6 °C 47.7 °F /  8.7 °C 29.85in /  1010.7hPa Calm   1mph /  1.6km/h 94% 0.01in /  0.25mm 0 W/m2
07:34 49 °F /  9.4 °C 47.4 °F /  8.6 °C 29.85in /  1010.7hPa Calm     94% 0.01in /  0.25mm 0 W/m2
07:39 49.3 °F /  9.6 °C 47.7 °F /  8.7 °C 29.85in /  1010.7hPa South 0.9mph /  1.4km/h 2mph /  3.2km/h 94.4% 0.01in /  0.25mm 0 W/m2
07:44 48.9 °F /  9.4 °C 47.3 °F /  8.5 °C 29.85in /  1010.7hPa South 1.2mph /  1.9km/h 2mph /  3.2km/h 94% 0.01in /  0.25mm 0 W/m2
07:49 48.9 °F /  9.4 °C 47.3 °F /  8.5 °C 29.85in /  1010.7hPa South 2.2mph /  3.5km/h 3mph /  4.8km/h 94% 0.01in /  0.25mm 0 W/m2
07:54 49.2 °F /  9.6 °C 47.6 °F /  8.7 °C 29.85in /  1010.7hPa South 0.9mph /  1.4km/h 3mph /  4.8km/h 94% 0.00in /  0mm 0 W/m2
07:59 49.3 °F /  9.6 °C 47.8 °F /  8.8 °C 29.85in /  1010.7hPa Calm   2mph /  3.2km/h 95% 0.01in /  0.25mm 5 W/m2
08:04 49.3 °F /  9.6 °C 47.8 °F /  8.8 °C 29.85in /  1010.7hPa South 0.8mph /  1.3km/h 2mph /  3.2km/h 94.8% 0.01in /  0.25mm 11 W/m2
08:09 49.5 °F /  9.7 °C 47.9 °F /  8.8 °C 29.86in /  1011.1hPa South 1.2mph /  1.9km/h 3mph /  4.8km/h 94.6% 0.01in /  0.25mm 14 W/m2
08:14 49.5 °F /  9.7 °C 48 °F /  8.9 °C 29.85in /  1010.7hPa South 2.4mph /  3.9km/h 3mph /  4.8km/h 95% 0.01in /  0.25mm 18 W/m2
08:19 49.5 °F /  9.7 °C 48 °F /  8.9 °C 29.86in /  1011.1hPa South 1.3mph /  2.1km/h 3mph /  4.8km/h 95% 0.01in /  0.25mm 21 W/m2
08:24 49.5 °F /  9.7 °C 48 °F /  8.9 °C 29.86in /  1011.1hPa South 0.5mph /  0.8km/h 2mph /  3.2km/h 95% 0.01in /  0.25mm 25 W/m2
08:29 49.4 °F /  9.7 °C 47.9 °F /  8.8 °C 29.86in /  1011.1hPa South 0.4mph /  0.6km/h 2mph /  3.2km/h 95% 0.01in /  0.25mm 28 W/m2
08:34 49.5 °F /  9.7 °C 48 °F /  8.9 °C 29.87in /  1011.4hPa South 0.2mph /  0.3km/h 2mph /  3.2km/h 95% 0.01in /  0.25mm 32 W/m2
08:39 49.7 °F /  9.8 °C 48.3 °F /  9.1 °C 29.87in /  1011.4hPa Calm   1mph /  1.6km/h 95% 0.01in /  0.25mm 33 W/m2
08:44 49.9 °F /  9.9 °C 48.5 °F /  9.2 °C 29.87in /  1011.4hPa Calm   2mph /  3.2km/h 95% 0.01in /  0.25mm 42 W/m2
08:49 49.9 °F /  9.9 °C 48.5 °F /  9.2 °C 29.87in /  1011.4hPa Calm     95% 0.01in /  0.25mm 49 W/m2
08:54 50.3 °F /  10.2 °C 48.8 °F /  9.3 °C 29.87in /  1011.4hPa Calm     95% 0.01in /  0.25mm 53 W/m2
08:59 50.8 °F /  10.4 °C 49.3 °F /  9.6 °C 29.87in /  1011.4hPa Calm     95% 0.01in /  0.25mm 56 W/m2
09:04 51.1 °F /  10.6 °C 49.6 °F /  9.8 °C 29.87in /  1011.4hPa Calm     95% 0.00in /  0mm 83 W/m2
09:09 51.1 °F /  10.6 °C 49.6 °F /  9.8 °C 29.88in /  1011.7hPa Calm     95% 0.01in /  0.25mm 79 W/m2
09:14 51.2 °F /  10.7 °C 49.8 °F /  9.9 °C 29.88in /  1011.7hPa Calm     95% 0.01in /  0.25mm 53 W/m2
09:19 51.6 °F /  10.9 °C 50.2 °F /  10.1 °C 29.88in /  1011.7hPa Calm     95% 0.01in /  0.25mm 83 W/m2
09:24 52.2 °F /  11.2 °C 50.7 °F /  10.4 °C 29.88in /  1011.7hPa Calm     95% 0.01in /  0.25mm 84 W/m2
09:29 52.7 °F /  11.5 °C 51.2 °F /  10.7 °C 29.88in /  1011.7hPa Calm     95% 0.01in /  0.25mm 105 W/m2
09:34 53.1 °F /  11.7 °C 51.6 °F /  10.9 °C 29.88in /  1011.7hPa South 2mph /  3.2km/h 4mph /  6.4km/h 95% 0.01in /  0.25mm 127 W/m2
09:39 53.6 °F /  12 °C 52.1 °F /  11.2 °C 29.88in /  1011.7hPa South 2.5mph /  4km/h 5mph /  8km/h 95% 0.01in /  0.25mm 139 W/m2
09:44 54 °F /  12.2 °C 52.6 °F /  11.4 °C 29.88in /  1011.7hPa SSE 3.6mph /  5.8km/h 6mph /  9.7km/h 95% 0.01in /  0.25mm 123 W/m2
09:49 54.2 °F /  12.3 °C 52.8 °F /  11.6 °C 29.88in /  1011.7hPa SSE 3.3mph /  5.3km/h 6mph /  9.7km/h 95% 0.01in /  0.25mm 104 W/m2
09:54 54.3 °F /  12.4 °C 52.9 °F /  11.6 °C 29.88in /  1011.7hPa SSE 3.2mph /  5.1km/h 6mph /  9.7km/h 95% 0.01in /  0.25mm 100 W/m2
09:59 54.4 °F /  12.4 °C 53 °F /  11.7 °C 29.88in /  1011.7hPa South 2.9mph /  4.7km/h 6mph /  9.7km/h 95% 0.01in /  0.25mm 107 W/m2
10:04 54.7 °F /  12.6 °C 53.2 °F /  11.8 °C 29.88in /  1011.7hPa SSE 1.6mph /  2.6km/h 5mph /  8km/h 95% 0.01in /  0.25mm 111 W/m2
10:09 54.9 °F /  12.7 °C 53.4 °F /  11.9 °C 29.88in /  1011.7hPa SSE 1.6mph /  2.6km/h 3mph /  4.8km/h 94.8% 0.01in /  0.25mm 118 W/m2
10:14 55 °F /  12.8 °C 53.5 °F /  11.9 °C 29.88in /  1011.7hPa SSE 1mph /  1.6km/h 4mph /  6.4km/h 94.4% 0.00in /  0mm 118 W/m2
10:19 55.4 °F /  13 °C 53.8 °F /  12.1 °C 29.88in /  1011.7hPa SSE 0.8mph /  1.3km/h 2mph /  3.2km/h 94% 0.00in /  0mm 121 W/m2
10:24 55.7 °F /  13.2 °C 54 °F /  12.2 °C 29.88in /  1011.7hPa SE 1.8mph /  2.9km/h 4mph /  6.4km/h 94% 0.01in /  0.25mm 132 W/m2
10:29 55.7 °F /  13.2 °C 54 °F /  12.2 °C 29.88in /  1011.7hPa ESE 1.3mph /  2.1km/h 4mph /  6.4km/h 94% 0.01in /  0.25mm 149 W/m2
10:34 55.8 °F /  13.2 °C 54.1 °F /  12.3 °C 29.88in /  1011.7hPa ESE 2.3mph /  3.7km/h 4mph /  6.4km/h 94% 0.01in /  0.25mm 169 W/m2
10:39 55.9 °F /  13.3 °C 54.3 °F /  12.4 °C 29.88in /  1011.7hPa ESE 3.6mph /  5.8km/h 7mph /  11.3km/h 94% 0.01in /  0.25mm 139 W/m2
10:44 56.1 °F /  13.4 °C 54.5 °F /  12.5 °C 29.88in /  1011.7hPa ESE 2.6mph /  4.2km/h 7mph /  11.3km/h 94% 0.01in /  0.25mm 232 W/m2
10:49 56.4 °F /  13.6 °C 54.7 °F /  12.6 °C 29.88in /  1011.7hPa SE 2mph /  3.2km/h 5mph /  8km/h 93.8% 0.01in /  0.25mm 223 W/m2
10:54 56.6 °F /  13.7 °C 54.6 °F /  12.6 °C 29.88in /  1011.7hPa SE 1.2mph /  1.9km/h 5mph /  8km/h 93% 0.01in /  0.25mm 209 W/m2
10:59 56.9 °F /  13.8 °C 55 °F /  12.8 °C 29.88in /  1011.7hPa ESE 3.2mph /  5.1km/h 7mph /  11.3km/h 93.2% 0.01in /  0.25mm 207 W/m2
11:04 57.3 °F /  14.1 °C 55.3 °F /  12.9 °C 29.88in /  1011.7hPa East 2mph /  3.2km/h 7mph /  11.3km/h 93% 0.01in /  0.25mm 188 W/m2
11:09 57.4 °F /  14.1 °C 55.4 °F /  13 °C 29.88in /  1011.7hPa ESE 1.9mph /  3.1km/h 5mph /  8km/h 93% 0.01in /  0.25mm 153 W/m2
11:14 57.4 °F /  14.1 °C 55.4 °F /  13 °C 29.88in /  1011.7hPa SE 2.8mph /  4.5km/h 5mph /  8km/h 93% 0.01in /  0.25mm 199 W/m2
11:19 57.2 °F /  14 °C 55 °F /  12.8 °C 29.88in /  1011.7hPa SSE 3.1mph /  5km/h 5mph /  8km/h 92.4% 0.01in /  0.25mm 325 W/m2
11:24 57.3 °F /  14.1 °C 54.9 °F /  12.7 °C 29.88in /  1011.7hPa ESE 2.1mph /  3.4km/h 5mph /  8km/h 92% 0.01in /  0.25mm 244 W/m2
11:29 57.5 °F /  14.2 °C 55.1 °F /  12.8 °C 29.88in /  1011.7hPa SE 2.6mph /  4.2km/h 5mph /  8km/h 92% 0.00in /  0mm 176 W/m2
11:34 57.4 °F /  14.1 °C 55 °F /  12.8 °C 29.88in /  1011.7hPa SSE 1.8mph /  2.9km/h 5mph /  8km/h 92% 0.00in /  0mm 209 W/m2
11:39 57.7 °F /  14.3 °C 55.3 °F /  12.9 °C 29.88in /  1011.7hPa SE 2.3mph /  3.7km/h 4mph /  6.4km/h 91.6% 0.01in /  0.25mm 297 W/m2
11:44 58 °F /  14.4 °C 55.4 °F /  13 °C 29.88in /  1011.7hPa East 1.8mph /  2.9km/h 4mph /  6.4km/h 91.2% 0.01in /  0.25mm 211 W/m2
11:49 58.4 °F /  14.7 °C 55.7 °F /  13.2 °C 29.88in /  1011.7hPa East 1.6mph /  2.6km/h 3mph /  4.8km/h 91% 0.01in /  0.25mm 250 W/m2
11:54 58.6 °F /  14.8 °C 55.9 °F /  13.3 °C 29.88in /  1011.7hPa East 1.2mph /  1.9km/h 3mph /  4.8km/h 91% 0.01in /  0.25mm 213 W/m2
11:59 58.9 °F /  14.9 °C 56.2 °F /  13.4 °C 29.87in /  1011.4hPa South 3.6mph /  5.8km/h 7mph /  11.3km/h 90.8% 0.01in /  0.25mm 397 W/m2
12:04 59.2 °F /  15.1 °C 56.3 °F /  13.5 °C 29.87in /  1011.4hPa South 3.2mph /  5.1km/h 6mph /  9.7km/h 90% 0.01in /  0.25mm 533 W/m2
12:09 59.5 °F /  15.3 °C 56.3 °F /  13.5 °C 29.87in /  1011.4hPa South 3.2mph /  5.1km/h 7mph /  11.3km/h 89% 0.01in /  0.25mm 378 W/m2
12:14 59.9 °F /  15.5 °C 56.3 °F /  13.5 °C 29.87in /  1011.4hPa South 2.9mph /  4.7km/h 7mph /  11.3km/h 87.8% 0.01in /  0.25mm 526 W/m2
12:19 60.4 °F /  15.8 °C 56.2 °F /  13.4 °C 29.87in /  1011.4hPa South 6.2mph /  10km/h 11mph /  17.7km/h 86.2% 0.01in /  0.25mm 476 W/m2
12:24 60.1 °F /  15.6 °C 55.5 °F /  13.1 °C 29.87in /  1011.4hPa SSE 7.3mph /  11.7km/h 12mph /  19.3km/h 84.8% 0.01in /  0.25mm 165 W/m2
12:29 59.6 °F /  15.3 °C 54.8 °F /  12.7 °C 29.87in /  1011.4hPa SSW 3.6mph /  5.8km/h 13mph /  20.9km/h 84% 0.01in /  0.25mm 225 W/m2
12:34 59.7 °F /  15.4 °C 54.9 °F /  12.7 °C 29.87in /  1011.4hPa South 2.5mph /  4km/h 8mph /  12.9km/h 84% 0.01in /  0.25mm 264 W/m2
12:39 59.9 °F /  15.5 °C 55.1 °F /  12.8 °C 29.87in /  1011.4hPa South 3.3mph /  5.3km/h 10mph /  16.1km/h 84% 0.01in /  0.25mm 241 W/m2
12:44 60 °F /  15.6 °C 55.1 °F /  12.8 °C 29.86in /  1011.1hPa South 3.3mph /  5.3km/h 9mph /  14.5km/h 84% 0.00in /  0mm 174 W/m2
12:49 60.1 °F /  15.6 °C 55.2 °F /  12.9 °C 29.86in /  1011.1hPa South 4.1mph /  6.6km/h 8mph /  12.9km/h 84% 0.00in /  0mm 234 W/m2
12:54 60.2 °F /  15.7 °C 55.3 °F /  12.9 °C 29.86in /  1011.1hPa South 2.9mph /  4.7km/h 8mph /  12.9km/h 84% 0.00in /  0mm 211 W/m2
12:59 60.3 °F /  15.7 °C 55 °F /  12.8 °C 29.86in /  1011.1hPa SSE 4.3mph /  6.9km/h 11mph /  17.7km/h 83% 0.00in /  0mm 171 W/m2
13:04 60.3 °F /  15.7 °C 54.8 °F /  12.7 °C 29.86in /  1011.1hPa SSE 4mph /  6.4km/h 10mph /  16.1km/h 82.2% 0.01in /  0.25mm 271 W/m2
13:09 60.4 °F /  15.8 °C 54.5 °F /  12.5 °C 29.86in /  1011.1hPa SSW 5.3mph /  8.5km/h 10mph /  16.1km/h 81.2% 0.01in /  0.25mm 197 W/m2
13:14 60.4 °F /  15.8 °C 54.5 °F /  12.5 °C 29.86in /  1011.1hPa South 4.1mph /  6.6km/h 9mph /  14.5km/h 81% 0.01in /  0.25mm 213 W/m2
13:19 60.6 °F /  15.9 °C 54.5 °F /  12.5 °C 29.85in /  1010.7hPa South 3.7mph /  6km/h 12mph /  19.3km/h 80% 0.01in /  0.25mm 255 W/m2
13:24 60.9 °F /  16.1 °C 54.7 °F /  12.6 °C 29.85in /  1010.7hPa SSW 4.8mph /  7.7km/h 13mph /  20.9km/h 80.2% 0.01in /  0.25mm 396 W/m2
13:29 61.2 °F /  16.2 °C 54.8 °F /  12.7 °C 29.85in /  1010.7hPa South 6mph /  9.7km/h 13mph /  20.9km/h 79.6% 0.01in /  0.25mm 424 W/m2
13:34 61.3 °F /  16.3 °C 54.6 °F /  12.6 °C 29.85in /  1010.7hPa South 6.6mph /  10.6km/h 15mph /  24.1km/h 78.4% 0.01in /  0.25mm 478 W/m2
13:39 61.3 °F /  16.3 °C 54.5 °F /  12.5 °C 29.85in /  1010.7hPa South 5.9mph /  9.5km/h 15mph /  24.1km/h 78% 0.01in /  0.25mm 461 W/m2
13:44 61.5 °F /  16.4 °C 54.6 °F /  12.6 °C 29.85in /  1010.7hPa South 5.8mph /  9.3km/h 12mph /  19.3km/h 77.8% 0.01in /  0.25mm 483 W/m2
13:49 61.7 °F /  16.5 °C 54.9 °F /  12.7 °C 29.85in /  1010.7hPa SSW 5.3mph /  8.5km/h 10mph /  16.1km/h 78% 0.01in /  0.25mm 526 W/m2
13:54 61.5 °F /  16.4 °C 54.7 °F /  12.6 °C 29.84in /  1010.4hPa South 3.5mph /  5.6km/h 11mph /  17.7km/h 77.8% 0.01in /  0.25mm 278 W/m2
13:59 61.4 °F /  16.3 °C 54.7 °F /  12.6 °C 29.84in /  1010.4hPa SSE 5.3mph /  8.5km/h 11mph /  17.7km/h 78.4% 0.01in /  0.25mm 132 W/m2
14:04 61 °F /  16.1 °C 54.6 °F /  12.6 °C 29.84in /  1010.4hPa South 4mph /  6.4km/h 10mph /  16.1km/h 79.2% 0.01in /  0.25mm 151 W/m2
14:09 60.9 °F /  16.1 °C 54.7 °F /  12.6 °C 29.84in /  1010.4hPa SSE 4.8mph /  7.7km/h 10mph /  16.1km/h 80% 0.00in /  0mm 200 W/m2
14:14 60.9 °F /  16.1 °C 54.7 °F /  12.6 °C 29.84in /  1010.4hPa SSE 6.8mph /  10.9km/h 12mph /  19.3km/h 80% 0.00in /  0mm 223 W/m2
14:19 60.8 °F /  16 °C 54.6 °F /  12.6 °C 29.84in /  1010.4hPa SSE 6.4mph /  10.3km/h 12mph /  19.3km/h 79.8% 0.00in /  0mm 232 W/m2
14:24 60.6 °F /  15.9 °C 54.2 °F /  12.3 °C 29.84in /  1010.4hPa SSE 7.4mph /  11.9km/h 14mph /  22.5km/h 79.2% 0.00in /  0mm 258 W/m2
14:29 61 °F /  16.1 °C 54.5 °F /  12.5 °C 29.84in /  1010.4hPa SSE 6.6mph /  10.6km/h 10mph /  16.1km/h 79% 0.00in /  0mm 510 W/m2
14:34 61.7 °F /  16.5 °C 54.9 °F /  12.7 °C 29.83in /  1010hPa SSE 4.8mph /  7.7km/h 11mph /  17.7km/h 78.2% 0.00in /  0mm 512 W/m2
14:39 62.1 °F /  16.7 °C 54.8 °F /  12.7 °C 29.83in /  1010hPa SE 4.8mph /  7.7km/h 11mph /  17.7km/h 77.4% 0.00in /  0mm 431 W/m2
14:44 62 °F /  16.7 °C 54.7 °F /  12.6 °C 29.83in /  1010hPa SSE 3.5mph /  5.6km/h 8mph /  12.9km/h 77% 0.01in /  0.25mm 401 W/m2
14:49 62.1 °F /  16.7 °C 54.8 °F /  12.7 °C 29.83in /  1010hPa SE 5.2mph /  8.4km/h 11mph /  17.7km/h 77% 0.01in /  0.25mm 427 W/m2
14:54 62.1 °F /  16.7 °C 54.7 °F /  12.6 °C 29.83in /  1010hPa SSE 4.7mph /  7.6km/h 11mph /  17.7km/h 77% 0.01in /  0.25mm 311 W/m2
14:59 61.7 °F /  16.5 °C 54.5 °F /  12.5 °C 29.83in /  1010hPa SE 6mph /  9.7km/h 12mph /  19.3km/h 77% 0.01in /  0.25mm 128 W/m2
15:04 61.3 °F /  16.3 °C 54.1 °F /  12.3 °C 29.83in /  1010hPa SSE 8mph /  12.9km/h 13mph /  20.9km/h 77% 0.01in /  0.25mm 223 W/m2
15:09 61.3 °F /  16.3 °C 54.1 °F /  12.3 °C 29.82in /  1009.7hPa SSE 5.2mph /  8.4km/h 12mph /  19.3km/h 77% 0.01in /  0.25mm 345 W/m2
15:14 61.7 °F /  16.5 °C 54.5 °F /  12.5 °C 29.82in /  1009.7hPa SE 6.3mph /  10.1km/h 13mph /  20.9km/h 77% 0.01in /  0.25mm 272 W/m2
15:19 61.7 °F /  16.5 °C 54.5 °F /  12.5 °C 29.82in /  1009.7hPa SE 3.2mph /  5.1km/h 9mph /  14.5km/h 77% 0.01in /  0.25mm 162 W/m2
15:24 61.5 °F /  16.4 °C 54.3 °F /  12.4 °C 29.82in /  1009.7hPa SE 5.2mph /  8.4km/h 13mph /  20.9km/h 77% 0.01in /  0.25mm 139 W/m2
15:29 61.2 °F /  16.2 °C 54.2 °F /  12.3 °C 29.81in /  1009.4hPa SSE 6mph /  9.7km/h 13mph /  20.9km/h 77.8% 0.01in /  0.25mm 137 W/m2
15:34 61 °F /  16.1 °C 54.1 °F /  12.3 °C 29.81in /  1009.4hPa SSE 4mph /  6.4km/h 7mph /  11.3km/h 78% 0.01in /  0.25mm 134 W/m2
15:39 61 °F /  16.1 °C 54.2 °F /  12.3 °C 29.81in /  1009.4hPa SE 3.8mph /  6.1km/h 11mph /  17.7km/h 78.2% 0.01in /  0.25mm 120 W/m2
15:44 61 °F /  16.1 °C 54.3 °F /  12.4 °C 29.81in /  1009.4hPa SE 4.6mph /  7.4km/h 9mph /  14.5km/h 78.4% 0.01in /  0.25mm 118 W/m2
15:49 60.8 °F /  16 °C 54 °F /  12.2 °C 29.81in /  1009.4hPa SE 3.6mph /  5.8km/h 9mph /  14.5km/h 78% 0.00in /  0mm 104 W/m2
15:54 60.8 °F /  16 °C 54 °F /  12.2 °C 29.81in /  1009.4hPa SSE 3.8mph /  6.1km/h 8mph /  12.9km/h 78% 0.00in /  0mm 102 W/m2
15:59 60.8 °F /  16 °C 54 °F /  12.2 °C 29.81in /  1009.4hPa SSE 4.1mph /  6.6km/h 9mph /  14.5km/h 78% 0.00in /  0mm 97 W/m2
16:04 60.6 °F /  15.9 °C 54.1 °F /  12.3 °C 29.80in /  1009hPa SSE 3.3mph /  5.3km/h 6mph /  9.7km/h 79% 0.00in /  0mm 86 W/m2
16:09 60.6 °F /  15.9 °C 54.1 °F /  12.3 °C 29.80in /  1009hPa SSE 5mph /  8km/h 10mph /  16.1km/h 79% 0.00in /  0mm 60 W/m2
16:14 60.4 °F /  15.8 °C 54 °F /  12.2 °C 29.80in /  1009hPa SSE 6mph /  9.7km/h 11mph /  17.7km/h 79% 0.00in /  0mm 54 W/m2
16:19 60.4 °F /  15.8 °C 54 °F /  12.2 °C 29.80in /  1009hPa SE 2.9mph /  4.7km/h 11mph /  17.7km/h 79% 0.00in /  0mm 53 W/m2
16:24 60.3 °F /  15.7 °C 53.8 °F /  12.1 °C 29.80in /  1009hPa SSE 6.6mph /  10.6km/h 13mph /  20.9km/h 79% 0.00in /  0mm 76 W/m2
16:29 60.1 °F /  15.6 °C 53.8 °F /  12.1 °C 29.80in /  1009hPa SSE 2.9mph /  4.7km/h 12mph /  19.3km/h 79.6% 0.00in /  0mm 74 W/m2
16:34 60.1 °F /  15.6 °C 54 °F /  12.2 °C 29.80in /  1009hPa SSE 3.3mph /  5.3km/h 7mph /  11.3km/h 80% 0.00in /  0mm 42 W/m2
16:39 60 °F /  15.6 °C 53.9 °F /  12.2 °C 29.79in /  1008.7hPa SSE 3.7mph /  6km/h 7mph /  11.3km/h 80% 0.00in /  0mm 32 W/m2
16:44 59.8 °F /  15.4 °C 53.7 °F /  12.1 °C 29.79in /  1008.7hPa SE 4.6mph /  7.4km/h 12mph /  19.3km/h 80% 0.00in /  0mm 33 W/m2
16:49 59.7 °F /  15.4 °C 53.7 °F /  12.1 °C 29.79in /  1008.7hPa SSE 3.3mph /  5.3km/h 9mph /  14.5km/h 80.2% 0.00in /  0mm 33 W/m2
16:54 59.7 °F /  15.4 °C 54 °F /  12.2 °C 29.79in /  1008.7hPa SE 6mph /  9.7km/h 12mph /  19.3km/h 81% 0.01in /  0.25mm 37 W/m2
16:59 59.5 °F /  15.3 °C 53.8 °F /  12.1 °C 29.78in /  1008.4hPa SSE 4.7mph /  7.6km/h 13mph /  20.9km/h 81% 0.01in /  0.25mm 37 W/m2
17:04 59.5 °F /  15.3 °C 53.8 °F /  12.1 °C 29.79in /  1008.7hPa SSE 4.8mph /  7.7km/h 13mph /  20.9km/h 81.2% 0.01in /  0.25mm 33 W/m2
17:09 59.5 °F /  15.3 °C 54 °F /  12.2 °C 29.78in /  1008.4hPa SE 4.5mph /  7.2km/h 9mph /  14.5km/h 82% 0.01in /  0.25mm 26 W/m2
17:14 59.5 °F /  15.3 °C 54 °F /  12.2 °C 29.78in /  1008.4hPa SE 8mph /  12.9km/h 17mph /  27.4km/h 82% 0.01in /  0.25mm 14 W/m2
17:19 59.4 °F /  15.2 °C 53.8 °F /  12.1 °C 29.78in /  1008.4hPa SE 4mph /  6.4km/h 17mph /  27.4km/h 82% 0.01in /  0.25mm 14 W/m2
17:24 59.4 °F /  15.2 °C 53.8 °F /  12.1 °C 29.78in /  1008.4hPa SSE 4.1mph /  6.6km/h 10mph /  16.1km/h 82% 0.01in /  0.25mm 7 W/m2
17:29 59.3 °F /  15.2 °C 53.7 °F /  12.1 °C 29.78in /  1008.4hPa SE 4.8mph /  7.7km/h 13mph /  20.9km/h 82% 0.01in /  0.25mm 11 W/m2
17:34 59.2 °F /  15.1 °C 54 °F /  12.2 °C 29.78in /  1008.4hPa SE 6mph /  9.7km/h 11mph /  17.7km/h 83% 0.01in /  0.25mm 11 W/m2
17:39 59.1 °F /  15.1 °C 53.9 °F /  12.2 °C 29.77in /  1008hPa SE 5.7mph /  9.2km/h 13mph /  20.9km/h 83% 0.01in /  0.25mm 7 W/m2
17:44 59 °F /  15 °C 53.8 °F /  12.1 °C 29.77in /  1008hPa SE 6mph /  9.7km/h 13mph /  20.9km/h 83% 0.01in /  0.25mm 5 W/m2
17:49 59 °F /  15 °C 53.8 °F /  12.1 °C 29.77in /  1008hPa SE 4.5mph /  7.2km/h 10mph /  16.1km/h 83.2% 0.01in /  0.25mm 0 W/m2
17:54 58.8 °F /  14.9 °C 53.8 °F /  12.1 °C 29.77in /  1008hPa ESE 7.2mph /  11.6km/h 14mph /  22.5km/h 83.6% 0.01in /  0.25mm 0 W/m2
17:59 58.8 °F /  14.9 °C 54 °F /  12.2 °C 29.76in /  1007.7hPa SSE 6.2mph /  10km/h 12mph /  19.3km/h 84% 0.00in /  0mm 0 W/m2
18:04 58.7 °F /  14.8 °C 53.9 °F /  12.2 °C 29.76in /  1007.7hPa SE 5.1mph /  8.2km/h 14mph /  22.5km/h 84% 0.00in /  0mm 0 W/m2
18:09 58.6 °F /  14.8 °C 53.9 °F /  12.2 °C 29.76in /  1007.7hPa SE 5.7mph /  9.2km/h 9mph /  14.5km/h 84.2% 0.00in /  0mm 0 W/m2
18:14 58.6 °F /  14.8 °C 54.1 °F /  12.3 °C 29.76in /  1007.7hPa SE 6.8mph /  10.9km/h 12mph /  19.3km/h 85% 0.00in /  0mm 0 W/m2
18:19 58.6 °F /  14.8 °C 54.1 °F /  12.3 °C 29.76in /  1007.7hPa SE 8.2mph /  13.2km/h 16mph /  25.7km/h 85% 0.00in /  0mm 0 W/m2
18:24 58.5 °F /  14.7 °C 54 °F /  12.2 °C 29.76in /  1007.7hPa SE 6.3mph /  10.1km/h 13mph /  20.9km/h 85% 0.00in /  0mm 0 W/m2
18:29 58.5 °F /  14.7 °C 54 °F /  12.2 °C 29.76in /  1007.7hPa SE 6.2mph /  10km/h 15mph /  24.1km/h 85% 0.00in /  0mm 0 W/m2
18:34 58.5 °F /  14.7 °C 54 °F /  12.2 °C 29.76in /  1007.7hPa SE 4.4mph /  7.1km/h 15mph /  24.1km/h 85% 0.00in /  0mm 0 W/m2
18:39 58.5 °F /  14.7 °C 54.1 °F /  12.3 °C 29.75in /  1007.3hPa ESE 7.7mph /  12.4km/h 16mph /  25.7km/h 85.6% 0.00in /  0mm 0 W/m2
18:44 58.3 °F /  14.6 °C 54.1 °F /  12.3 °C 29.75in /  1007.3hPa SE 5.6mph /  9km/h 12mph /  19.3km/h 86% 0.00in /  0mm 0 W/m2
18:49 58.3 °F /  14.6 °C 54.1 °F /  12.3 °C 29.75in /  1007.3hPa SE 5.2mph /  8.4km/h 12mph /  19.3km/h 86% 0.00in /  0mm 0 W/m2
18:54 58.3 °F /  14.6 °C 54.1 °F /  12.3 °C 29.75in /  1007.3hPa ESE 7.1mph /  11.4km/h 14mph /  22.5km/h 86% 0.00in /  0mm 0 W/m2
18:59 58.3 °F /  14.6 °C 54.1 °F /  12.3 °C 29.75in /  1007.3hPa SE 5.9mph /  9.5km/h 14mph /  22.5km/h 86% 0.00in /  0mm 0 W/m2
19:04 58.3 °F /  14.6 °C 54.4 °F /  12.4 °C 29.75in /  1007.3hPa SE 6.8mph /  10.9km/h 12mph /  19.3km/h 86.8% 0.00in /  0mm 0 W/m2
19:09 58.3 °F /  14.6 °C 54.5 °F /  12.5 °C 29.75in /  1007.3hPa SE 6.8mph /  10.9km/h 14mph /  22.5km/h 87% 0.00in /  0mm 0 W/m2
19:14 58.2 °F /  14.6 °C 54.4 °F /  12.4 °C 29.75in /  1007.3hPa ESE 7.8mph /  12.6km/h 16mph /  25.7km/h 87% 0.01in /  0.25mm 0 W/m2
19:19 58.1 °F /  14.5 °C 54.3 °F /  12.4 °C 29.75in /  1007.3hPa SE 6.4mph /  10.3km/h 14mph /  22.5km/h 87% 0.01in /  0.25mm 0 W/m2
19:24 58.1 °F /  14.5 °C 54.3 °F /  12.4 °C 29.75in /  1007.3hPa SE 6.6mph /  10.6km/h 17mph /  27.4km/h 87% 0.01in /  0.25mm 0 W/m2
19:29 58.1 °F /  14.5 °C 54.3 °F /  12.4 °C 29.75in /  1007.3hPa SE 5.7mph /  9.2km/h 17mph /  27.4km/h 87% 0.01in /  0.25mm 0 W/m2
19:34 58.1 °F /  14.5 °C 54.3 °F /  12.4 °C 29.75in /  1007.3hPa SE 5.2mph /  8.4km/h 11mph /  17.7km/h 87% 0.01in /  0.25mm 0 W/m2
19:39 58.1 °F /  14.5 °C 54.3 °F /  12.4 °C 29.74in /  1007hPa SE 4.8mph /  7.7km/h 13mph /  20.9km/h 87% 0.01in /  0.25mm 0 W/m2
19:44 58.1 °F /  14.5 °C 54.3 °F /  12.4 °C 29.74in /  1007hPa SE 6.2mph /  10km/h 14mph /  22.5km/h 87% 0.01in /  0.25mm 0 W/m2
19:49 58.1 °F /  14.5 °C 54.3 °F /  12.4 °C 29.74in /  1007hPa ESE 8.2mph /  13.2km/h 15mph /  24.1km/h 87% 0.01in /  0.25mm 0 W/m2
19:54 58.1 °F /  14.5 °C 54.3 °F /  12.4 °C 29.74in /  1007hPa ESE 5.9mph /  9.5km/h 13mph /  20.9km/h 87% 0.01in /  0.25mm 0 W/m2
19:59 58.1 °F /  14.5 °C 54.4 °F /  12.4 °C 29.73in /  1006.7hPa SE 5.4mph /  8.7km/h 15mph /  24.1km/h 87.4% 0.01in /  0.25mm 0 W/m2
20:04 58.1 °F /  14.5 °C 54.5 °F /  12.5 °C 29.73in /  1006.7hPa SE 4.9mph /  7.9km/h 14mph /  22.5km/h 88% 0.01in /  0.25mm 0 W/m2
20:09 58.2 °F /  14.6 °C 54.6 °F /  12.6 °C 29.73in /  1006.7hPa SE 9.2mph /  14.8km/h 15mph /  24.1km/h 88% 0.01in /  0.25mm 0 W/m2
20:14 58.3 °F /  14.6 °C 54.7 °F /  12.6 °C 29.73in /  1006.7hPa SE 7.6mph /  12.2km/h 14mph /  22.5km/h 88% 0.01in /  0.25mm 0 W/m2
20:19 58.3 °F /  14.6 °C 54.7 °F /  12.6 °C 29.73in /  1006.7hPa SE 7.2mph /  11.6km/h 13mph /  20.9km/h 88% 0.00in /  0mm 0 W/m2
20:24 58.4 °F /  14.7 °C 54.8 °F /  12.7 °C 29.73in /  1006.7hPa SE 8mph /  12.9km/h 14mph /  22.5km/h 88% 0.00in /  0mm 0 W/m2
20:29 58.5 °F /  14.7 °C 54.8 °F /  12.7 °C 29.73in /  1006.7hPa SE 7.4mph /  11.9km/h 17mph /  27.4km/h 87.8% 0.00in /  0mm 0 W/m2
20:34 58.5 °F /  14.7 °C 54.9 °F /  12.7 °C 29.73in /  1006.7hPa SE 7.8mph /  12.6km/h 17mph /  27.4km/h 88% 0.00in /  0mm 0 W/m2
20:39 58.5 °F /  14.7 °C 54.9 °F /  12.7 °C 29.73in /  1006.7hPa SE 6.1mph /  9.8km/h 14mph /  22.5km/h 88% 0.00in /  0mm 0 W/m2
20:44 58.4 °F /  14.7 °C 54.8 °F /  12.7 °C 29.72in /  1006.3hPa SE 8.6mph /  13.8km/h 16mph /  25.7km/h 88% 0.00in /  0mm 0 W/m2
20:49 58.4 °F /  14.7 °C 54.8 °F /  12.7 °C 29.72in /  1006.3hPa SE 4.3mph /  6.9km/h 11mph /  17.7km/h 88% 0.00in /  0mm 0 W/m2
20:54 58.3 °F /  14.6 °C 54.7 °F /  12.6 °C 29.72in /  1006.3hPa ESE 6.8mph /  10.9km/h 14mph /  22.5km/h 88% 0.00in /  0mm 0 W/m2
20:59 58.3 °F /  14.6 °C 54.7 °F /  12.6 °C 29.72in /  1006.3hPa SE 4.8mph /  7.7km/h 14mph /  22.5km/h 88% 0.00in /  0mm 0 W/m2
21:04 58.3 °F /  14.6 °C 54.7 °F /  12.6 °C 29.72in /  1006.3hPa ESE 5.7mph /  9.2km/h 12mph /  19.3km/h 88% 0.00in /  0mm 0 W/m2
21:09 58.3 °F /  14.6 °C 54.7 °F /  12.6 °C 29.71in /  1006hPa ESE 6mph /  9.7km/h 12mph /  19.3km/h 88% 0.00in /  0mm 0 W/m2
21:14 58.3 °F /  14.6 °C 54.7 °F /  12.6 °C 29.71in /  1006hPa ESE 5.1mph /  8.2km/h 14mph /  22.5km/h 88% 0.00in /  0mm 0 W/m2
21:19 58.3 °F /  14.6 °C 54.7 °F /  12.6 °C 29.71in /  1006hPa ESE 5.8mph /  9.3km/h 11mph /  17.7km/h 88% 0.00in /  0mm 0 W/m2
21:24 58.3 °F /  14.6 °C 54.7 °F /  12.6 °C 29.71in /  1006hPa SE 7mph /  11.3km/h 12mph /  19.3km/h 88% 0.00in /  0mm 0 W/m2
21:29 58.3 °F /  14.6 °C 54.7 °F /  12.6 °C 29.71in /  1006hPa ESE 4.7mph /  7.6km/h 13mph /  20.9km/h 88% 0.00in /  0mm 0 W/m2
21:34 58.3 °F /  14.6 °C 54.7 °F /  12.6 °C 29.71in /  1006hPa SE 3.6mph /  5.8km/h 10mph /  16.1km/h 88% 0.00in /  0mm 0 W/m2
21:39 58.4 °F /  14.7 °C 54.8 °F /  12.7 °C 29.71in /  1006hPa SE 7.6mph /  12.2km/h 13mph /  20.9km/h 88% 0.00in /  0mm 0 W/m2
21:44 58.5 °F /  14.7 °C 54.9 °F /  12.7 °C 29.71in /  1006hPa ESE 7mph /  11.3km/h 14mph /  22.5km/h 88% 0.00in /  0mm 0 W/m2
21:49 58.5 °F /  14.7 °C 54.9 °F /  12.7 °C 29.70in /  1005.6hPa ESE 5.7mph /  9.2km/h 12mph /  19.3km/h 88% 0.00in /  0mm 0 W/m2
21:54 58.5 °F /  14.7 °C 54.9 °F /  12.7 °C 29.70in /  1005.6hPa ESE 5.5mph /  8.9km/h 11mph /  17.7km/h 88% 0.00in /  0mm 0 W/m2
21:59 58.5 °F /  14.7 °C 54.9 °F /  12.7 °C 29.70in /  1005.6hPa SE 8.4mph /  13.5km/h 16mph /  25.7km/h 88% 0.00in /  0mm 0 W/m2
22:04 58.7 °F /  14.8 °C 55.1 °F /  12.8 °C 29.70in /  1005.6hPa SE 6.3mph /  10.1km/h 13mph /  20.9km/h 88% 0.00in /  0mm 0 W/m2
22:09 58.9 °F /  14.9 °C 55.2 °F /  12.9 °C 29.70in /  1005.6hPa SE 4.9mph /  7.9km/h 14mph /  22.5km/h 87.2% 0.00in /  0mm 0 W/m2
22:14 59.2 °F /  15.1 °C 55.4 °F /  13 °C 29.70in /  1005.6hPa SE 5.8mph /  9.3km/h 14mph /  22.5km/h 87% 0.00in /  0mm 0 W/m2
22:19 59.3 °F /  15.2 °C 55.4 °F /  13 °C 29.70in /  1005.6hPa SE 4.4mph /  7.1km/h 11mph /  17.7km/h 87% 0.00in /  0mm 0 W/m2
22:24 59.4 °F /  15.2 °C 55.4 °F /  13 °C 29.70in /  1005.6hPa SE 6.2mph /  10km/h 11mph /  17.7km/h 87% 0.00in /  0mm 0 W/m2
22:29 59.4 °F /  15.2 °C 55.4 °F /  13 °C 29.70in /  1005.6hPa ESE 4.6mph /  7.4km/h 10mph /  16.1km/h 87% 0.00in /  0mm 0 W/m2
22:34 59.5 °F /  15.3 °C 55.6 °F /  13.1 °C 29.70in /  1005.6hPa SE 5.8mph /  9.3km/h 12mph /  19.3km/h 87% 0.00in /  0mm 0 W/m2
22:39 59.5 °F /  15.3 °C 55.6 °F /  13.1 °C 29.70in /  1005.6hPa SSE 5.2mph /  8.4km/h 15mph /  24.1km/h 86.8% 0.00in /  0mm 0 W/m2
22:44 59.7 °F /  15.4 °C 55.8 °F /  13.2 °C 29.70in /  1005.6hPa SE 5.6mph /  9km/h 9mph /  14.5km/h 87% 0.00in /  0mm 0 W/m2
22:49 59.7 °F /  15.4 °C 55.6 °F /  13.1 °C 29.70in /  1005.6hPa SE 6.3mph /  10.1km/h 11mph /  17.7km/h 86% 0.01in /  0.25mm 0 W/m2
22:54 59.9 °F /  15.5 °C 55.8 °F /  13.2 °C 29.70in /  1005.6hPa SE 3.5mph /  5.6km/h 11mph /  17.7km/h 86% 0.01in /  0.25mm 0 W/m2
22:59 59.9 °F /  15.5 °C 55.8 °F /  13.2 °C 29.70in /  1005.6hPa SE 4.8mph /  7.7km/h 11mph /  17.7km/h 86% 0.01in /  0.25mm 0 W/m2
23:04 59.9 °F /  15.5 °C 55.8 °F /  13.2 °C 29.69in /  1005.3hPa SE 5.1mph /  8.2km/h 11mph /  17.7km/h 86% 0.01in /  0.25mm 0 W/m2
23:09 60.1 °F /  15.6 °C 55.9 °F /  13.3 °C 29.69in /  1005.3hPa SE 5.4mph /  8.7km/h 9mph /  14.5km/h 86% 0.01in /  0.25mm 0 W/m2
23:14 60.1 °F /  15.6 °C 55.9 °F /  13.3 °C 29.69in /  1005.3hPa SE 6.8mph /  10.9km/h 11mph /  17.7km/h 86% 0.01in /  0.25mm 0 W/m2
23:19 60.1 °F /  15.6 °C 55.9 °F /  13.3 °C 29.69in /  1005.3hPa SE 4mph /  6.4km/h 10mph /  16.1km/h 86% 0.01in /  0.25mm 0 W/m2
23:24 60.3 °F /  15.7 °C 56.1 °F /  13.4 °C 29.69in /  1005.3hPa SE 6.8mph /  10.9km/h 11mph /  17.7km/h 86% 0.01in /  0.25mm 0 W/m2
23:29 60.3 °F /  15.7 °C 56.1 °F /  13.4 °C 29.69in /  1005.3hPa SE 4.8mph /  7.7km/h 11mph /  17.7km/h 86% 0.01in /  0.25mm 0 W/m2
23:34 60.3 °F /  15.7 °C 56.1 °F /  13.4 °C 29.69in /  1005.3hPa SE 5.3mph /  8.5km/h 10mph /  16.1km/h 86% 0.01in /  0.25mm 0 W/m2
23:39 60.4 °F /  15.8 °C 56.3 °F /  13.5 °C 29.68in /  1005hPa SE 6mph /  9.7km/h 13mph /  20.9km/h 86% 0.01in /  0.25mm 0 W/m2
23:44 60.6 °F /  15.9 °C 56.4 °F /  13.6 °C 29.68in /  1005hPa SE 7.4mph /  11.9km/h 16mph /  25.7km/h 85.8% 0.01in /  0.25mm 0 W/m2
23:49 60.8 °F /  16 °C 56.3 °F /  13.5 °C 29.67in /  1004.6hPa SSE 7.2mph /  11.6km/h 14mph /  22.5km/h 85% 0.00in /  0mm 0 W/m2
23:54 60.7 °F /  15.9 °C 56.2 °F /  13.4 °C 29.67in /  1004.6hPa SSE 6.8mph /  10.9km/h 12mph /  19.3km/h 85% 0.00in /  0mm 0 W/m2
23:59 60.8 °F /  16 °C 56.3 °F /  13.5 °C 29.67in /  1004.6hPa SE 7mph /  11.3km/h 13mph /  20.9km/h 85% 0.00in /  0mm 0 W/m2
Bath Spa Weather
Compliments of Weather Underground - 2 mb